Jueves, 25 de Agosto del 2016

portal contactenos mapa del sitio buscar Revisar Correo Corporativo

|Reporte METAR por Reginal » ||Reporte TAF por Reginal » ||Reporte METAR, TAF y SIN覲TICO »

Reporte METAR por Regional

|| La Paz || Santa Cruz || Cochabamba || Beni - Pando ||

Informe METAR emitido cada hora.

Regional La Paz

ESTACIÓN

AEROPUERTO

HORA UTC

DESCRIPCIÓN

SLRY

Reyes

14-18S|67-21W

16:00

SLRY 251600Z 35006KT 3000 FU NSC 31/22 Q1016 A3001 HR60 CI RWY OPR 1 100M=

SLRQ

Rurrenabaque

14-25S|67-29W

16:00

SLRQ 251600Z 36006KT 2000 FU NSC 31/23 Q1015 A2998 HR64 CI=

SLAP

Apolo

14-44S|68-24W

-

Mensaje no Recibido

SLSB

San Borja

14-51S|66-44W

16:00

SLSB 251600Z 00000KT 3000 FU NSC 31/20 Q1014 A2997 HR50 RWY NML=

SLLP

Internaci贸nal El Alto

16-08S|68-10W

16:00

SLLP 251600Z 19005KT 9999 FEW017 14/M02 Q1038 A3067 628.3 P93// FU AC/CI HR35 NOSIG=

SLCN

Chara帽a

17-35S|69-25W

-

Mensaje no Recibido

SLOR

Oruro

17-57S|67-04W

16:00

SLOR 251600Z 21008KT 9999 NSC 15/M03 Q1038 A3066 658.1 HR28=

SLUY

Uyuni

20-27S|62-52W

16:00

SLUY 251600Z VRB02KT 9999 NSC 12/M07 Q1036 A3062 660.2 HR25=

Regional Cochabamba

ESTACIÓN

AEROPUERTO

HORA UTC

DESCRIPCIÓN

SLCB

Cochabamba

17-25S|66-10W

16:00

SLCB 251600Z 12003KT 9999 FEW035 25/02 Q1025 A3027 751.5 HR22 FU NOSIG=

SLAL

Sucre (Alcantari)

19-14S|65-09W

16:00

SLAL 251600Z 00000KT 9999 NSC 19/M07 Q1030 A3042 HR17=

SLPO

Potos铆

19-32S|65-43W

16:00

SLPO 251600Z NIL=

SLAG

Monteagudo

19-49S|63-58W

16:00

SLAG 251600Z WO ATTN=

SLVM

Villamontes

21-15S|63-24W

16:00

SLVM 251600Z 00000KT 2000 FU NSC 31/11 Q1011 A2988 HR31 CI=

SLTJ

Tarija

21-33S|64-42W

16:00

SLTJ 251600Z 18004KT 9999 NSC 25/04 Q1019 A3010 HR24 FU=

SLYA

Yacuiba

21-57S|63-39W

16:00

COR SLYA 251600Z 00000KT 5000 FU NSC 31/11 Q1013 A2991 HR31 CI=

SLBJ

Bermejo

22-46S|64-18W

16:00

SLBJ 251600Z NIL=

Regional Santa Cruz

ESTACIÓN

AEROPUERTO

HORA UTC

DESCRIPCIÓN

SLAS

Ascenci贸n de Guarayos

15-55S|63-09W

16:00

SLAS 251600Z 00000KT 1000 FU NSC 34/16 Q1016 A3002 HR34 RWY NML =

SLCP

Concepci贸n

16-08S|62-01W

16:00

SLCP 251600Z 30008KT 2000 FU NSC 33/15 Q1017 A3003 HR33 RWY NML =

SLJV

San Javier

16-16S|62-28W

16:00

SLJV 251600Z 36010KT 1500 FU NSC 33/15 Q1015 A2997 HR33 RWY NML =

SLTI

San Mat铆as

16-20S|58-24W

16:00

SLTI 251600Z 00000KT 8000 NSC 35/17 Q1020 A3012 HR36 FU RWY NML =

SLSI

San Ignacio de Velasco

16-23S|60-57W

16:00

SLSI 251600Z 36006KT 6000 NSC 34/19 Q1015 A2997 HR41 FU RWY NML =

SLVR

Internaci贸nal Viru Viru

17-38S|63-08W

16:00

SLVR 251600Z 32017G29KT 4000 FU NSC 32/14 Q1014 A2995 HR35 CI NOSIG=

SLET

El Trompillo

17-48S|63-10W

16:00

SLET 251600Z 31017G29KT 4000 FU NSC 32/16 Q1013 A2993 HR37 CI NOSIG=

SLJE

San Jos茅 de Chiquitos

17-49S|60-44W

15:00

SLJE 251500Z 00000KT 2000 FU NSC 32/18 Q1017 A3003 HR43 RWY NML =

SLRB

Robor茅

18-19S|59-45W

16:00

SLRB 251600Z 36018KT 8000 NSC 34/19 Q1017 A3003 HR44 FU RWY NML =

SLVG

Valle Grande

18-28S|64-05W

15:00

SLVG 251500Z 02009KT 8000 NSC 20/11 Q1026 A3030 HR51 FU RWY NML =

SLPS

Puerto Su谩rez

18-58S|57-49W

16:00

SLPS 251600Z 09005KT 9000 NSC 32/17 Q1014 A2995 HR43 FU=

SLCA

Camiri

20-00S|63-31W

16:00

SLCA 251600Z 18004KT 3000 FU NSC 28/07 Q1016 A3000 HR28 RWY NML =

Regional Beni

ESTACIÓN

AEROPUERTO

HORA UTC

DESCRIPCIÓN

SLGM

Guayaramer铆n

10-49S|65-20W

16:00

SLGM 251600Z 24003KT 3000 FU NSC 34/19 Q1016 A3002 HR43=

SLRI

Riberalta

11-00S|66-04W

16:00

SLRI 251600Z 00000KT 3000 FU NSC 32/20 Q1014 A2997 HR48=

SLCO

Cobija

11-02S|68-47W

16:00

SLCO 251600Z VRB02KT 6000 NSC 33/22 Q1015 A2998 987.7 HR51 FU=

SLJO

San Joaquin

13-03S|64-39W

16:00

SLJO 251600Z 00000KT 5000 FU NSC 32/18 Q1016 A3003 HR44 RWY NML=

SLMG

San Magdalena

13-15S|64-03W

16:00

SLMG 251600Z 22004KT 5000 FU NSC 34/18 Q1015 A2997 HR40 RWY NML=

SLRA

San Ram贸n

13-15S|64-36W

16:00

SLRA 251600Z 00000KT 5000 FU NSC 33/18 Q1014 A2997 HR43 RWY NML=

SLBU

Baures

13-39S|63-42W

16:00

SLBU 251600Z 29004KT 3000 FU NSC 34/20 Q1014 A2996 HR44 RWY NML=

SLSA

Santa Ana de Yacuma

13-45S|65-26W

16:00

SLSA 251600Z 34006KT 3000 FU NSC 33/17 Q1015 A2998 HR39=

SLSR

Santa Rosa

14-04S|66-47W

16:00

SLSR 251600Z 35006KT 3500 FU NSC 32/20 Q//// A//// HR48 CI RWY NML=

SLTR

Trinidad

14-49S|64-54W

16:00

SLTR 251600Z 29005KT 3000 FU NSC 33/18 Q1014 A2997 996.2 HR42 NOSIG=

SLSM

San Ignacio de Moxos

14-57S|65-38W

16:00

SLSM 251600Z 18004KT 5000 FU NSC 30/19 Q1015 A2998 HR54 RWY NML=